Time;durP1;ratioP1;P1;durP2;ratioP2;P2;SDS_P1;SDS_P2;PMS_P1;PMS_P2;Temp;Humidity;BMP_temperature;BMP_pressure;BME280_temperature;BME280_humidity;BME280_pressure;Samples;Min_cycle;Max_cycle;Signal;HPM_P1;HPM_P2
2021/12/10 00:04:50;;;;;;;15.25;5.07;;;;;;;2.14;97.08;99143.66;21033225;28;20052;-75
2021/12/10 00:14:53;;;;;;;16.63;5.80;;;;;;;2.12;96.02;99127.31;21030205;28;20056;-75
2021/12/10 00:24:55;;;;;;;14.75;5.43;;;;;;;2.02;95.52;99100.66;21031622;28;20052;-76
2021/12/10 00:34:58;;;;;;;10.85;3.95;;;;;;;1.93;96.39;99077.47;21026804;28;20489;-75
2021/12/10 00:45:04;;;;;;;12.48;3.35;;;;;;;1.91;95.27;99051.63;21030050;28;20056;-75
2021/12/10 00:55:07;;;;;;;12.25;3.70;;;;;;;1.75;95.67;99025.00;21028401;28;20509;-75
2021/12/10 01:05:09;;;;;;;13.30;4.47;;;;;;;1.61;96.85;99010.44;21026392;28;20466;-76
2021/12/10 01:25:37;;;;;;;13.05;3.90;;;;;;;1.21;98.70;98962.34;21024842;28;20041;-75
2021/12/10 01:35:42;;;;;;;11.82;3.47;;;;;;;1.05;99.58;98955.47;21024356;28;20833;-74
2021/12/10 01:45:48;;;;;;;10.13;4.35;;;;;;;0.76;100.00;98948.63;21025634;28;20553;-74
2021/12/10 01:55:53;;;;;;;11.73;3.15;;;;;;;0.56;100.00;98918.56;21022341;28;20056;-75
2021/12/10 02:05:55;;;;;;;10.98;3.45;;;;;;;0.42;100.00;98898.81;21021622;28;20390;-73
2021/12/10 02:15:58;;;;;;;8.52;3.50;;;;;;;0.31;100.00;98877.34;21024990;28;20481;-74
2021/12/10 02:26:01;;;;;;;16.15;4.05;;;;;;;0.22;100.00;98857.63;21023798;28;20353;-74
2021/12/10 02:36:04;;;;;;;11.40;3.20;;;;;;;0.12;100.00;98848.16;21021597;28;20045;-73
2021/12/10 02:46:05;;;;;;;10.38;3.42;;;;;;;0.01;100.00;98831.00;21022439;28;20074;-72
2021/12/10 02:56:07;;;;;;;10.70;3.10;;;;;;;-0.07;100.00;98792.41;21023465;28;20052;-72
2021/12/10 03:06:11;;;;;;;13.52;5.13;;;;;;;-0.18;100.00;98745.25;21035865;28;20462;-73
2021/12/10 03:16:14;;;;;;;14.45;5.55;;;;;;;-0.20;100.00;98734.09;21035228;28;20497;-73
2021/12/10 03:26:21;;;;;;;10.55;3.60;;;;;;;-0.14;100.00;98705.81;21033820;28;20051;-70
2021/12/10 03:36:23;;;;;;;9.43;3.20;;;;;;;-0.27;100.00;98699.81;21034906;28;20044;-72
2021/12/10 03:46:25;;;;;;;14.48;4.95;;;;;;;-0.34;100.00;98695.50;21032644;28;20072;-72
2021/12/10 03:56:28;;;;;;;11.07;4.60;;;;;;;-0.43;100.00;98686.09;20991025;28;20048;-72
2021/12/10 04:06:30;;;;;;;11.83;4.67;;;;;;;-0.56;100.00;98667.22;21020524;28;20100;-71
2021/12/10 04:16:33;;;;;;;13.13;4.53;;;;;;;-0.55;100.00;98650.06;21031555;28;20238;-72
2021/12/10 04:26:34;;;;;;;10.68;3.28;;;;;;;-0.44;100.00;98624.38;21028790;28;20049;-71
2021/12/10 04:36:36;;;;;;;9.88;3.10;;;;;;;-0.38;100.00;98596.94;21029246;28;20485;-71
2021/12/10 04:46:38;;;;;;;8.10;3.60;;;;;;;-0.33;100.00;98579.81;21027364;28;20051;-72
2021/12/10 04:56:40;;;;;;;12.13;2.70;;;;;;;-0.31;100.00;98578.06;21028723;28;20465;-71
2021/12/10 05:06:42;;;;;;;9.18;2.60;;;;;;;-0.32;100.00;98550.66;21025741;28;20056;-73
2021/12/10 05:16:46;;;;;;;6.50;2.25;;;;;;;-0.28;100.00;98524.06;21026366;28;20052;-73
2021/12/10 05:26:48;;;;;;;20.50;4.35;;;;;;;-0.29;100.00;98504.38;21026163;28;20052;-73
2021/12/10 05:36:49;;;;;;;9.35;2.30;;;;;;;-0.22;100.00;98494.06;21022119;28;20110;-72
2021/12/10 05:46:51;;;;;;;9.05;2.42;;;;;;;-0.28;99.30;98472.66;21023837;28;20488;-72
2021/12/10 05:56:53;;;;;;;9.68;2.15;;;;;;;-0.29;100.00;98452.06;21023950;28;20052;-73
2021/12/10 06:06:56;;;;;;;9.23;2.20;;;;;;;-0.30;100.00;98422.91;21021477;28;20106;-73
2021/12/10 06:16:58;;;;;;;8.63;2.20;;;;;;;-0.23;99.19;98390.34;21024375;28;20503;-72
2021/12/10 06:27:00;;;;;;;7.07;3.15;;;;;;;-0.14;98.57;98374.88;21021492;28;20053;-73
2021/12/10 06:37:01;;;;;;;10.23;3.10;;;;;;;-0.04;98.32;98360.22;21034683;28;20052;-72
2021/12/10 06:47:05;;;;;;;13.23;4.25;;;;;;;0.02;98.12;98338.75;21036694;28;20053;-74
2021/12/10 06:57:07;;;;;;;14.93;4.83;;;;;;;0.09;97.56;98309.53;20994764;28;20041;-73
2021/12/10 07:07:10;;;;;;;12.57;4.88;;;;;;;0.06;96.53;98310.41;21021292;28;20044;-72
2021/12/10 07:17:12;;;;;;;10.50;3.50;;;;;;;-0.04;95.53;98298.50;21038277;28;20101;-73
2021/12/10 07:27:14;;;;;;;16.83;7.38;;;;;;;-0.22;96.08;98311.47;21035477;28;20072;-72
2021/12/10 07:37:15;;;;;;;34.88;13.40;;;;;;;-0.43;98.62;98286.72;21035862;28;20402;-72
2021/12/10 07:47:17;;;;;;;36.88;13.32;;;;;;;-0.49;98.98;98292.75;21031146;28;20041;-72
2021/12/10 07:57:20;;;;;;;11.57;5.00;;;;;;;-0.55;99.58;98300.50;21033346;28;20076;-72
2021/12/10 08:07:21;;;;;;;10.75;4.22;;;;;;;-0.42;100.00;98302.16;21060928;28;20085;-72
2021/12/10 08:17:26;;;;;;;10.88;4.82;;;;;;;-0.32;99.69;98301.25;21062887;28;20077;-72
2021/12/10 08:27:27;;;;;;;18.60;7.63;;;;;;;-0.07;98.81;98299.34;21062234;28;20043;-73
2021/12/10 08:37:29;;;;;;;12.63;6.00;;;;;;;0.05;99.24;98285.56;21061566;28;20394;-72
2021/12/10 08:47:31;;;;;;;16.30;7.30;;;;;;;0.29;98.46;98265.63;21062445;28;20372;-71
2021/12/10 08:57:33;;;;;;;23.05;7.43;;;;;;;0.46;96.84;98266.31;21060408;28;20112;-73
2021/12/10 09:07:37;;;;;;;16.13;8.20;;;;;;;0.88;96.72;98256.44;21059936;28;20089;-73
2021/12/10 09:17:40;;;;;;;23.57;11.60;;;;;;;1.20;96.17;98248.34;21029993;28;20255;-74
2021/12/10 09:27:42;;;;;;;28.05;11.85;;;;;;;1.44;93.68;98260.06;21021422;28;20101;-74
2021/12/10 09:37:46;;;;;;;12.82;5.85;;;;;;;1.29;92.48;98250.78;21016001;28;20098;-74
2021/12/10 09:47:50;;;;;;;11.85;4.30;;;;;;;1.12;93.24;98238.13;21016473;28;20056;-75
2021/12/10 09:57:53;;;;;;;12.57;4.10;;;;;;;1.11;94.89;98239.00;21018467;28;20092;-70
2021/12/10 10:07:57;;;;;;;25.02;8.73;;;;;;;1.12;95.97;98230.38;21013997;28;20040;-72
2021/12/10 10:18:02;;;;;;;18.67;8.07;;;;;;;1.17;97.40;98212.28;21017271;28;20622;-71
2021/12/10 10:28:06;;;;;;;13.77;4.88;;;;;;;1.22;97.92;98207.91;21016415;28;20511;-71
2021/12/10 10:38:09;;;;;;;12.40;4.63;;;;;;;1.24;98.77;98198.44;21015821;28;20044;-72
2021/12/10 10:48:13;;;;;;;11.27;4.25;;;;;;;1.46;99.08;98186.09;21013746;28;20053;-72
2021/12/10 10:58:17;;;;;;;11.53;5.80;;;;;;;1.57;97.73;98171.31;21017399;28;20059;-73
2021/12/10 11:08:29;;;;;;;16.97;7.17;;;;;;;1.46;98.02;98163.75;20972328;28;20060;-80
2021/12/10 11:18:45;;;;;;;11.70;6.65;;;;;;;1.53;97.93;98161.91;21014091;28;20061;-76
2021/12/10 11:28:47;;;;;;;13.98;5.20;;;;;;;1.46;98.25;98162.88;21027263;28;20122;-72
2021/12/10 11:38:56;;;;;;;12.23;5.72;;;;;;;1.35;100.00;98139.00;21024418;28;20091;-73
2021/12/10 11:49:24;;;;;;;15.93;8.25;;;;;;;1.32;99.31;98144.19;21024031;28;20048;-74
2021/12/10 11:59:31;;;;;;;21.95;11.02;;;;;;;1.20;99.65;98138.34;21024812;28;20044;-72
2021/12/10 12:09:38;;;;;;;16.08;8.02;;;;;;;1.26;99.43;98127.09;21024806;28;20048;-72
2021/12/10 12:19:41;;;;;;;19.63;8.75;;;;;;;1.37;100.00;98125.19;21027258;28;20475;-74
2021/12/10 12:29:51;;;;;;;17.45;7.57;;;;;;;1.51;99.84;98128.41;21021832;28;20050;-76
2021/12/10 12:40:03;;;;;;;17.15;6.95;;;;;;;1.43;99.51;98130.25;21021730;28;20485;-74
2021/12/10 12:50:08;;;;;;;14.93;7.47;;;;;;;1.57;100.00;98124.03;21022268;28;20058;-71
2021/12/10 13:00:48;;;;;;;13.38;7.20;;;;;;;1.86;100.00;98136.44;21019630;28;20138;-72
2021/12/10 13:11:11;;;;;;;15.88;8.13;;;;;;;1.95;100.00;98134.56;21017746;28;20413;-73
2021/12/10 13:21:13;;;;;;;20.95;8.40;;;;;;;1.88;100.00;98140.72;21017107;28;20105;-73
2021/12/10 13:31:17;;;;;;;19.25;9.05;;;;;;;2.05;100.00;98149.00;21019557;28;20046;-71
2021/12/10 13:41:21;;;;;;;15.85;7.47;;;;;;;2.25;100.00;98148.66;21016158;28;20090;-71
2021/12/10 13:51:32;;;;;;;16.42;7.05;;;;;;;2.23;100.00;98160.72;21014007;28;20098;-72
2021/12/10 14:01:55;;;;;;;11.77;6.40;;;;;;;2.21;100.00;98171.97;21022414;28;20500;-70
2021/12/10 14:12:39;;;;;;;10.00;6.55;;;;;;;2.07;100.00;98172.22;21016438;28;20094;-71
2021/12/10 14:22:51;;;;;;;10.55;5.78;;;;;;;1.94;100.00;98192.22;21016556;28;20048;-72
2021/12/10 14:33:15;;;;;;;12.65;7.38;;;;;;;1.87;100.00;98202.66;21016774;28;20124;-75
2021/12/10 14:43:24;;;;;;;19.95;10.23;;;;;;;1.90;100.00;98213.78;21008790;28;20055;-75
2021/12/10 14:53:39;;;;;;;20.92;11.55;;;;;;;1.83;100.00;98219.06;21015685;28;20102;-75
2021/12/10 15:04:21;;;;;;;19.65;11.75;;;;;;;1.86;100.00;98224.16;21030965;28;20443;-76
2021/12/10 15:14:43;;;;;;;18.63;10.48;;;;;;;1.89;100.00;98229.28;21032143;28;20076;-74
2021/12/10 15:24:54;;;;;;;16.80;10.70;;;;;;;1.93;100.00;98246.44;21024845;28;20056;-74
2021/12/10 15:35:14;;;;;;;16.38;11.07;;;;;;;2.10;100.00;98257.31;21032978;28;20055;-74
2021/12/10 15:45:20;;;;;;;16.33;9.80;;;;;;;2.19;100.00;98270.09;21024708;28;20071;-75
2021/12/10 15:55:22;;;;;;;14.95;8.73;;;;;;;2.35;100.00;98300.81;21025472;28;20052;-74
2021/12/10 16:05:24;;;;;;;17.67;9.75;;;;;;;2.48;100.00;98312.66;21021597;28;20643;-74
2021/12/10 16:15:31;;;;;;;13.88;8.85;;;;;;;2.57;100.00;98328.00;21028893;28;20671;-74
2021/12/10 16:25:37;;;;;;;15.70;8.38;;;;;;;2.68;100.00;98336.41;21022875;28;20171;-74
2021/12/10 16:35:43;;;;;;;14.05;8.35;;;;;;;2.87;100.00;98357.63;21020978;28;20048;-75
2021/12/10 16:45:47;;;;;;;14.55;8.52;;;;;;;2.91;100.00;98368.75;21022680;28;20040;-74
2021/12/10 16:55:52;;;;;;;14.47;8.80;;;;;;;2.95;100.00;98380.75;20978127;28;20056;-81
2021/12/10 17:05:54;;;;;;;14.50;8.90;;;;;;;3.04;100.00;98409.88;21000040;28;20687;-73
2021/12/10 17:15:58;;;;;;;15.53;8.83;;;;;;;3.09;100.00;98422.72;21023462;28;20807;-77
2021/12/10 17:26:05;;;;;;;12.10;7.18;;;;;;;3.19;100.00;98442.38;21118185;22;20055;-73
2021/12/10 17:36:10;;;;;;;13.70;6.50;;;;;;;3.17;100.00;98459.66;21017720;28;20055;-76
2021/12/10 17:46:22;;;;;;;10.40;5.13;;;;;;;3.27;100.00;98466.38;21015478;28;20098;-74
2021/12/10 17:56:25;;;;;;;10.02;4.50;;;;;;;3.24;100.00;98487.09;21013147;28;20056;-74
2021/12/10 18:06:33;;;;;;;8.23;3.90;;;;;;;3.37;100.00;98505.03;21015985;28;20052;-75
2021/12/10 18:16:35;;;;;;;10.88;4.07;;;;;;;3.43;100.00;98521.28;21015129;28;20396;-75
2021/12/10 18:26:41;;;;;;;11.30;4.55;;;;;;;3.47;100.00;98548.81;21015672;28;20556;-75
2021/12/10 18:36:44;;;;;;;13.88;4.40;;;;;;;3.54;100.00;98558.16;21031767;28;20522;-75
2021/12/10 18:46:49;;;;;;;11.02;4.20;;;;;;;3.48;100.00;98578.97;21028101;28;20455;-74
2021/12/10 18:56:55;;;;;;;12.57;4.78;;;;;;;3.57;100.00;98593.50;21026513;28;20054;-74
2021/12/10 19:07:05;;;;;;;12.60;4.40;;;;;;;3.59;100.00;98617.59;21026397;28;20102;-74
2021/12/10 19:17:15;;;;;;;11.90;4.25;;;;;;;3.75;100.00;98639.78;21027970;28;20409;-74
2021/12/10 19:27:24;;;;;;;10.07;3.53;;;;;;;3.69;100.00;98645.06;21028379;28;20455;-74
2021/12/10 19:37:34;;;;;;;11.40;4.00;;;;;;;3.70;100.00;98662.28;21023729;28;20429;-73
2021/12/10 19:47:40;;;;;;;10.90;3.70;;;;;;;3.68;100.00;98661.44;21023991;28;20101;-74
2021/12/10 19:57:49;;;;;;;11.00;3.40;;;;;;;3.60;100.00;98686.63;21025227;28;20324;-73
2021/12/10 20:08:01;;;;;;;10.77;4.00;;;;;;;3.64;100.00;98708.97;21028766;28;20039;-74
2021/12/10 20:18:09;;;;;;;11.68;4.40;;;;;;;3.63;100.00;98727.09;21028699;28;20477;-73
2021/12/10 20:28:16;;;;;;;14.98;3.72;;;;;;;3.60;100.00;98753.91;21022647;28;20048;-72
2021/12/10 20:38:22;;;;;;;11.77;3.85;;;;;;;3.62;100.00;98767.66;21003549;28;20056;-74
2021/12/10 20:48:27;;;;;;;15.38;3.63;;;;;;;3.61;100.00;98786.66;20991830;28;20044;-74
2021/12/10 20:58:33;;;;;;;;;;;;;;;3.66;100.00;98805.56;21010783;28;20105;-72
2021/12/10 21:08:43;;;;;;;9.23;3.58;;;;;;;3.65;100.00;98813.34;21010471;28;20308;-72
2021/12/10 21:19:10;;;;;;;11.05;3.55;;;;;;;3.66;100.00;98826.28;21007149;28;20444;-72
2021/12/10 21:29:34;;;;;;;13.07;4.03;;;;;;;3.71;100.00;98847.78;21001108;28;20048;-72
2021/12/10 21:39:53;;;;;;;17.85;4.03;;;;;;;3.72;100.00;98846.88;21011969;28;20133;-72
2021/12/10 21:50:01;;;;;;;11.43;3.72;;;;;;;3.60;100.00;98872.94;21018768;28;20093;-72
2021/12/10 22:00:18;;;;;;;16.58;3.97;;;;;;;3.66;100.00;98901.31;21006436;28;20105;-73
2021/12/10 22:10:28;;;;;;;11.55;4.53;;;;;;;3.54;100.00;98924.75;21011228;28;20051;-73
2021/12/10 22:20:37;;;;;;;11.73;4.00;;;;;;;3.44;100.00;98949.00;21006411;28;20052;-73
2021/12/10 22:30:43;;;;;;;9.70;3.60;;;;;;;3.42;100.00;98961.13;21011352;28;20493;-73
2021/12/10 22:40:49;;;;;;;7.40;3.08;;;;;;;3.44;100.00;98993.00;21008142;28;20052;-73
2021/12/10 22:51:06;;;;;;;6.07;2.53;;;;;;;3.39;100.00;99020.63;21005331;28;20040;-73
2021/12/10 23:01:11;;;;;;;4.85;1.80;;;;;;;3.44;100.00;99053.34;21006574;28;20040;-72
2021/12/10 23:11:32;;;;;;;;;;;;;;;3.38;100.00;99073.25;21009809;28;20044;-72
2021/12/10 23:21:46;;;;;;;5.53;1.50;;;;;;;3.25;100.00;99099.22;21024213;28;19920;-71
2021/12/10 23:31:51;;;;;;;2.95;1.20;;;;;;;3.27;100.00;99115.59;21022811;28;20105;-73
2021/12/10 23:42:01;;;;;;;5.07;2.05;;;;;;;3.22;100.00;99130.28;21024100;28;20048;-73
2021/12/10 23:52:09;;;;;;;3.33;1.35;;;;;;;3.17;100.00;99149.28;21019916;28;20077;-73
